Badgeworth, United Kingdom
Current Conditions -  °F | °C
As of 1:20 PM on Saturday 25 Oct 2014 (Local Time) from EGBJ Reporting Station
Scattered Clouds Scattered Clouds  
Wind Chill: 14°   Ceiling: Unl
Heat Index: 14°   Visibility: 6mi
Dew Point: 11°   Wind: 12mph
Humidity: 82%   Direction: 210°SSW
Pressure: 30.03"   Gusts: NA
Location:  51.91°N, 2.11°W
Report Text: EGBJ 251220Z 21010KT 170V240 9999 FEW011 SCT018 14/11 Q1017
Loading
Personal Weather Stations






























Interactive Weather Map
Tropical Storm Tracking
New forecast layout! Learn more

10-Day Weather Forecast

Advertisements
Track Severe Weather on mobile